sensor_id;sensor_type;location;lat;lon;timestamp;P1;durP1;ratioP1;P2;durP2;ratioP2
18138;SDS011;9195;53.176;9.486;2022-12-07T00:01:46;5.20;;;5.00;;
18138;SDS011;9195;53.176;9.486;2022-12-07T00:04:13;5.37;;;5.17;;
18138;SDS011;9195;53.176;9.486;2022-12-07T00:06:41;5.07;;;4.87;;
18138;SDS011;9195;53.176;9.486;2022-12-07T00:09:14;4.50;;;4.30;;
18138;SDS011;9195;53.176;9.486;2022-12-07T00:11:41;4.50;;;4.30;;
18138;SDS011;9195;53.176;9.486;2022-12-07T00:14:10;5.03;;;4.83;;
18138;SDS011;9195;53.176;9.486;2022-12-07T00:16:37;4.03;;;3.93;;
18138;SDS011;9195;53.176;9.486;2022-12-07T00:19:03;4.83;;;4.63;;
18138;SDS011;9195;53.176;9.486;2022-12-07T00:21:30;5.20;;;5.00;;
18138;SDS011;9195;53.176;9.486;2022-12-07T00:23:57;2.37;;;2.27;;
18138;SDS011;9195;53.176;9.486;2022-12-07T00:26:30;2.20;;;2.10;;
18138;SDS011;9195;53.176;9.486;2022-12-07T00:29:00;2.30;;;2.20;;
18138;SDS011;9195;53.176;9.486;2022-12-07T00:31:29;2.10;;;2.00;;
18138;SDS011;9195;53.176;9.486;2022-12-07T00:34:03;2.20;;;2.10;;
18138;SDS011;9195;53.176;9.486;2022-12-07T00:36:36;2.23;;;2.13;;
18138;SDS011;9195;53.176;9.486;2022-12-07T00:39:02;2.30;;;2.20;;
18138;SDS011;9195;53.176;9.486;2022-12-07T00:41:28;2.50;;;2.40;;
18138;SDS011;9195;53.176;9.486;2022-12-07T00:43:54;2.20;;;2.10;;
18138;SDS011;9195;53.176;9.486;2022-12-07T00:46:20;2.40;;;2.30;;
18138;SDS011;9195;53.176;9.486;2022-12-07T00:48:47;2.50;;;2.40;;
18138;SDS011;9195;53.176;9.486;2022-12-07T00:51:14;2.57;;;2.47;;
18138;SDS011;9195;53.176;9.486;2022-12-07T00:53:41;2.73;;;2.63;;
18138;SDS011;9195;53.176;9.486;2022-12-07T00:58:34;2.60;;;2.50;;
18138;SDS011;9195;53.176;9.486;2022-12-07T01:01:03;2.77;;;2.67;;
18138;SDS011;9195;53.176;9.486;2022-12-07T01:03:29;2.60;;;2.50;;
18138;SDS011;9195;53.176;9.486;2022-12-07T01:05:55;2.50;;;2.40;;
18138;SDS011;9195;53.176;9.486;2022-12-07T01:08:22;2.30;;;2.20;;
18138;SDS011;9195;53.176;9.486;2022-12-07T01:10:49;2.77;;;2.67;;
18138;SDS011;9195;53.176;9.486;2022-12-07T01:13:15;2.60;;;2.50;;
18138;SDS011;9195;53.176;9.486;2022-12-07T01:15:44;2.50;;;2.40;;
18138;SDS011;9195;53.176;9.486;2022-12-07T01:18:10;2.60;;;2.50;;
18138;SDS011;9195;53.176;9.486;2022-12-07T01:20:36;2.50;;;2.40;;
18138;SDS011;9195;53.176;9.486;2022-12-07T01:23:02;2.50;;;2.40;;
18138;SDS011;9195;53.176;9.486;2022-12-07T01:25:28;2.73;;;2.63;;
18138;SDS011;9195;53.176;9.486;2022-12-07T01:27:54;2.60;;;2.50;;
18138;SDS011;9195;53.176;9.486;2022-12-07T01:30:19;2.80;;;2.70;;
18138;SDS011;9195;53.176;9.486;2022-12-07T01:32:45;2.60;;;2.50;;
18138;SDS011;9195;53.176;9.486;2022-12-07T01:35:10;2.40;;;2.30;;
18138;SDS011;9195;53.176;9.486;2022-12-07T01:37:37;2.57;;;2.47;;
18138;SDS011;9195;53.176;9.486;2022-12-07T01:40:07;2.60;;;2.50;;
18138;SDS011;9195;53.176;9.486;2022-12-07T01:42:33;2.30;;;2.20;;
18138;SDS011;9195;53.176;9.486;2022-12-07T01:47:44;2.50;;;2.40;;
18138;SDS011;9195;53.176;9.486;2022-12-07T01:50:13;2.70;;;2.60;;
18138;SDS011;9195;53.176;9.486;2022-12-07T01:52:39;2.50;;;2.40;;
18138;SDS011;9195;53.176;9.486;2022-12-07T01:55:08;2.60;;;2.50;;
18138;SDS011;9195;53.176;9.486;2022-12-07T01:57:39;2.70;;;2.60;;
18138;SDS011;9195;53.176;9.486;2022-12-07T02:00:07;2.73;;;2.63;;
18138;SDS011;9195;53.176;9.486;2022-12-07T02:02:35;2.80;;;2.70;;
18138;SDS011;9195;53.176;9.486;2022-12-07T02:05:04;2.60;;;2.50;;
18138;SDS011;9195;53.176;9.486;2022-12-07T02:07:31;2.60;;;2.50;;
18138;SDS011;9195;53.176;9.486;2022-12-07T02:12:41;2.60;;;2.50;;
18138;SDS011;9195;53.176;9.486;2022-12-07T02:15:09;2.47;;;2.37;;
18138;SDS011;9195;53.176;9.486;2022-12-07T02:20:33;2.17;;;2.07;;
18138;SDS011;9195;53.176;9.486;2022-12-07T02:23:21;2.40;;;2.30;;
18138;SDS011;9195;53.176;9.486;2022-12-07T02:31:30;2.30;;;2.20;;
18138;SDS011;9195;53.176;9.486;2022-12-07T02:34:08;2.40;;;2.30;;
18138;SDS011;9195;53.176;9.486;2022-12-07T02:36:42;2.40;;;2.30;;
18138;SDS011;9195;53.176;9.486;2022-12-07T02:39:14;2.40;;;2.30;;
18138;SDS011;9195;53.176;9.486;2022-12-07T02:41:49;2.70;;;2.60;;
18138;SDS011;9195;53.176;9.486;2022-12-07T02:44:20;2.30;;;2.20;;
18138;SDS011;9195;53.176;9.486;2022-12-07T02:46:54;2.20;;;2.10;;
18138;SDS011;9195;53.176;9.486;2022-12-07T02:49:22;2.40;;;2.30;;
18138;SDS011;9195;53.176;9.486;2022-12-07T02:51:49;2.40;;;2.30;;
18138;SDS011;9195;53.176;9.486;2022-12-07T02:54:17;2.50;;;2.40;;
18138;SDS011;9195;53.176;9.486;2022-12-07T02:56:48;2.47;;;2.37;;
18138;SDS011;9195;53.176;9.486;2022-12-07T03:10:22;4.60;;;4.40;;
18138;SDS011;9195;53.176;9.486;2022-12-07T03:13:02;4.20;;;4.10;;
18138;SDS011;9195;53.176;9.486;2022-12-07T03:15:43;4.93;;;4.73;;
18138;SDS011;9195;53.176;9.486;2022-12-07T03:18:15;4.77;;;4.57;;
18138;SDS011;9195;53.176;9.486;2022-12-07T03:20:44;4.80;;;4.60;;
18138;SDS011;9195;53.176;9.486;2022-12-07T03:23:13;5.00;;;4.80;;
18138;SDS011;9195;53.176;9.486;2022-12-07T03:25:42;5.30;;;5.10;;
18138;SDS011;9195;53.176;9.486;2022-12-07T03:28:13;5.30;;;5.10;;
18138;SDS011;9195;53.176;9.486;2022-12-07T03:30:49;5.07;;;4.87;;
18138;SDS011;9195;53.176;9.486;2022-12-07T03:33:46;3.37;;;3.27;;
18138;SDS011;9195;53.176;9.486;2022-12-07T03:36:30;2.80;;;2.70;;
18138;SDS011;9195;53.176;9.486;2022-12-07T03:41:34;2.73;;;2.63;;
18138;SDS011;9195;53.176;9.486;2022-12-07T03:44:02;2.50;;;2.40;;
18138;SDS011;9195;53.176;9.486;2022-12-07T03:51:24;2.93;;;2.83;;
18138;SDS011;9195;53.176;9.486;2022-12-07T03:56:42;2.67;;;2.57;;
18138;SDS011;9195;53.176;9.486;2022-12-07T03:59:09;2.77;;;2.67;;
18138;SDS011;9195;53.176;9.486;2022-12-07T04:01:37;2.60;;;2.50;;
18138;SDS011;9195;53.176;9.486;2022-12-07T04:04:03;2.90;;;2.80;;
18138;SDS011;9195;53.176;9.486;2022-12-07T04:06:29;2.87;;;2.77;;
18138;SDS011;9195;53.176;9.486;2022-12-07T04:08:54;2.70;;;2.60;;
18138;SDS011;9195;53.176;9.486;2022-12-07T04:11:20;2.70;;;2.60;;
18138;SDS011;9195;53.176;9.486;2022-12-07T04:13:45;2.90;;;2.80;;
18138;SDS011;9195;53.176;9.486;2022-12-07T04:16:30;2.57;;;2.47;;
18138;SDS011;9195;53.176;9.486;2022-12-07T04:18:55;2.60;;;2.50;;
18138;SDS011;9195;53.176;9.486;2022-12-07T04:21:21;2.77;;;2.67;;
18138;SDS011;9195;53.176;9.486;2022-12-07T04:23:46;2.53;;;2.43;;
18138;SDS011;9195;53.176;9.486;2022-12-07T04:26:12;2.50;;;2.40;;
18138;SDS011;9195;53.176;9.486;2022-12-07T04:28:37;2.70;;;2.60;;
18138;SDS011;9195;53.176;9.486;2022-12-07T04:31:03;2.50;;;2.40;;
18138;SDS011;9195;53.176;9.486;2022-12-07T04:33:29;2.50;;;2.40;;
18138;SDS011;9195;53.176;9.486;2022-12-07T04:35:54;2.93;;;2.83;;
18138;SDS011;9195;53.176;9.486;2022-12-07T04:38:20;3.00;;;2.90;;
18138;SDS011;9195;53.176;9.486;2022-12-07T04:40:45;3.00;;;2.90;;
18138;SDS011;9195;53.176;9.486;2022-12-07T04:43:11;3.07;;;2.97;;
18138;SDS011;9195;53.176;9.486;2022-12-07T04:45:37;3.00;;;2.90;;
18138;SDS011;9195;53.176;9.486;2022-12-07T04:48:02;3.00;;;2.90;;
18138;SDS011;9195;53.176;9.486;2022-12-07T04:50:28;3.30;;;3.20;;
18138;SDS011;9195;53.176;9.486;2022-12-07T04:52:53;3.30;;;3.20;;
18138;SDS011;9195;53.176;9.486;2022-12-07T04:55:19;3.10;;;3.00;;
18138;SDS011;9195;53.176;9.486;2022-12-07T04:57:45;3.10;;;3.00;;
18138;SDS011;9195;53.176;9.486;2022-12-07T05:00:10;3.30;;;3.20;;
18138;SDS011;9195;53.176;9.486;2022-12-07T05:02:36;3.20;;;3.10;;
18138;SDS011;9195;53.176;9.486;2022-12-07T05:05:02;3.33;;;3.23;;
18138;SDS011;9195;53.176;9.486;2022-12-07T05:07:27;3.70;;;3.60;;
18138;SDS011;9195;53.176;9.486;2022-12-07T05:09:53;3.70;;;3.60;;
18138;SDS011;9195;53.176;9.486;2022-12-07T05:12:19;3.67;;;3.57;;
18138;SDS011;9195;53.176;9.486;2022-12-07T05:14:44;3.60;;;3.50;;
18138;SDS011;9195;53.176;9.486;2022-12-07T05:17:10;3.57;;;3.47;;
18138;SDS011;9195;53.176;9.486;2022-12-07T05:19:36;3.87;;;3.77;;
18138;SDS011;9195;53.176;9.486;2022-12-07T05:22:02;3.50;;;3.40;;
18138;SDS011;9195;53.176;9.486;2022-12-07T05:24:27;3.83;;;3.73;;
18138;SDS011;9195;53.176;9.486;2022-12-07T05:26:53;3.67;;;3.57;;
18138;SDS011;9195;53.176;9.486;2022-12-07T05:29:18;3.80;;;3.70;;
18138;SDS011;9195;53.176;9.486;2022-12-07T05:31:44;4.00;;;3.90;;
18138;SDS011;9195;53.176;9.486;2022-12-07T05:34:10;3.87;;;3.77;;
18138;SDS011;9195;53.176;9.486;2022-12-07T05:36:36;3.90;;;3.80;;
18138;SDS011;9195;53.176;9.486;2022-12-07T05:39:02;3.40;;;3.30;;
18138;SDS011;9195;53.176;9.486;2022-12-07T05:41:28;3.70;;;3.60;;
18138;SDS011;9195;53.176;9.486;2022-12-07T05:44:12;3.43;;;3.33;;
18138;SDS011;9195;53.176;9.486;2022-12-07T05:46:38;3.20;;;3.10;;
18138;SDS011;9195;53.176;9.486;2022-12-07T05:49:03;3.40;;;3.30;;
18138;SDS011;9195;53.176;9.486;2022-12-07T05:51:29;3.37;;;3.27;;
18138;SDS011;9195;53.176;9.486;2022-12-07T05:53:55;3.20;;;3.10;;
18138;SDS011;9195;53.176;9.486;2022-12-07T05:56:20;3.10;;;3.00;;
18138;SDS011;9195;53.176;9.486;2022-12-07T05:58:46;2.97;;;2.87;;
18138;SDS011;9195;53.176;9.486;2022-12-07T06:01:30;3.00;;;2.90;;
18138;SDS011;9195;53.176;9.486;2022-12-07T06:03:56;3.00;;;2.90;;
18138;SDS011;9195;53.176;9.486;2022-12-07T06:06:21;2.97;;;2.87;;
18138;SDS011;9195;53.176;9.486;2022-12-07T06:08:47;2.90;;;2.80;;
18138;SDS011;9195;53.176;9.486;2022-12-07T06:11:12;3.40;;;3.30;;
18138;SDS011;9195;53.176;9.486;2022-12-07T06:13:57;3.00;;;2.90;;
18138;SDS011;9195;53.176;9.486;2022-12-07T06:16:22;3.60;;;3.50;;
18138;SDS011;9195;53.176;9.486;2022-12-07T06:18:48;3.40;;;3.30;;
18138;SDS011;9195;53.176;9.486;2022-12-07T06:21:14;3.67;;;3.57;;
18138;SDS011;9195;53.176;9.486;2022-12-07T06:23:39;3.57;;;3.47;;
18138;SDS011;9195;53.176;9.486;2022-12-07T06:26:05;3.50;;;3.40;;
18138;SDS011;9195;53.176;9.486;2022-12-07T06:28:30;3.60;;;3.50;;
18138;SDS011;9195;53.176;9.486;2022-12-07T06:31:00;3.30;;;3.20;;
18138;SDS011;9195;53.176;9.486;2022-12-07T06:33:27;3.50;;;3.40;;
18138;SDS011;9195;53.176;9.486;2022-12-07T06:35:53;3.37;;;3.27;;
18138;SDS011;9195;53.176;9.486;2022-12-07T06:38:19;3.50;;;3.40;;
18138;SDS011;9195;53.176;9.486;2022-12-07T06:40:45;3.20;;;3.10;;
18138;SDS011;9195;53.176;9.486;2022-12-07T06:43:10;3.33;;;3.23;;
18138;SDS011;9195;53.176;9.486;2022-12-07T06:45:36;3.90;;;3.80;;
18138;SDS011;9195;53.176;9.486;2022-12-07T06:48:02;4.00;;;3.90;;
18138;SDS011;9195;53.176;9.486;2022-12-07T06:50:27;4.00;;;3.90;;
18138;SDS011;9195;53.176;9.486;2022-12-07T06:52:53;4.20;;;4.10;;
18138;SDS011;9195;53.176;9.486;2022-12-07T06:55:19;4.07;;;3.97;;
18138;SDS011;9195;53.176;9.486;2022-12-07T06:57:44;4.33;;;4.13;;
18138;SDS011;9195;53.176;9.486;2022-12-07T07:00:11;4.60;;;4.40;;
18138;SDS011;9195;53.176;9.486;2022-12-07T07:02:37;4.50;;;4.30;;
18138;SDS011;9195;53.176;9.486;2022-12-07T07:05:02;4.07;;;3.97;;
18138;SDS011;9195;53.176;9.486;2022-12-07T07:07:28;3.87;;;3.77;;
18138;SDS011;9195;53.176;9.486;2022-12-07T07:09:54;4.20;;;4.10;;
18138;SDS011;9195;53.176;9.486;2022-12-07T07:12:20;4.20;;;4.10;;
18138;SDS011;9195;53.176;9.486;2022-12-07T07:14:45;4.43;;;4.23;;
18138;SDS011;9195;53.176;9.486;2022-12-07T07:17:12;4.10;;;4.00;;
18138;SDS011;9195;53.176;9.486;2022-12-07T07:19:37;4.40;;;4.20;;
18138;SDS011;9195;53.176;9.486;2022-12-07T07:22:03;4.50;;;4.30;;
18138;SDS011;9195;53.176;9.486;2022-12-07T07:24:29;4.53;;;4.33;;
18138;SDS011;9195;53.176;9.486;2022-12-07T07:26:55;4.10;;;4.00;;
18138;SDS011;9195;53.176;9.486;2022-12-07T07:29:20;4.40;;;4.20;;
18138;SDS011;9195;53.176;9.486;2022-12-07T07:31:46;3.93;;;3.83;;
18138;SDS011;9195;53.176;9.486;2022-12-07T07:34:12;4.00;;;3.90;;
18138;SDS011;9195;53.176;9.486;2022-12-07T07:36:37;4.60;;;4.40;;
18138;SDS011;9195;53.176;9.486;2022-12-07T07:39:03;4.10;;;4.00;;
18138;SDS011;9195;53.176;9.486;2022-12-07T07:41:29;3.70;;;3.60;;
18138;SDS011;9195;53.176;9.486;2022-12-07T07:43:56;3.70;;;3.60;;
18138;SDS011;9195;53.176;9.486;2022-12-07T07:46:22;4.10;;;4.00;;
18138;SDS011;9195;53.176;9.486;2022-12-07T07:48:48;3.80;;;3.70;;
18138;SDS011;9195;53.176;9.486;2022-12-07T07:51:13;3.60;;;3.50;;
18138;SDS011;9195;53.176;9.486;2022-12-07T07:53:39;3.90;;;3.80;;
18138;SDS011;9195;53.176;9.486;2022-12-07T07:56:05;3.67;;;3.57;;
18138;SDS011;9195;53.176;9.486;2022-12-07T07:58:30;4.00;;;3.90;;
18138;SDS011;9195;53.176;9.486;2022-12-07T08:00:56;4.00;;;3.90;;
18138;SDS011;9195;53.176;9.486;2022-12-07T08:03:22;4.17;;;4.07;;
18138;SDS011;9195;53.176;9.486;2022-12-07T08:05:47;4.20;;;4.10;;
18138;SDS011;9195;53.176;9.486;2022-12-07T08:08:13;4.03;;;3.93;;
18138;SDS011;9195;53.176;9.486;2022-12-07T08:10:38;4.83;;;4.63;;
18138;SDS011;9195;53.176;9.486;2022-12-07T08:13:04;4.57;;;4.37;;
18138;SDS011;9195;53.176;9.486;2022-12-07T08:15:36;4.40;;;4.20;;
18138;SDS011;9195;53.176;9.486;2022-12-07T08:18:04;5.00;;;4.80;;
18138;SDS011;9195;53.176;9.486;2022-12-07T08:20:30;4.73;;;4.53;;
18138;SDS011;9195;53.176;9.486;2022-12-07T08:22:57;5.10;;;4.90;;
18138;SDS011;9195;53.176;9.486;2022-12-07T08:25:23;4.77;;;4.57;;
18138;SDS011;9195;53.176;9.486;2022-12-07T08:27:49;5.33;;;5.13;;
18138;SDS011;9195;53.176;9.486;2022-12-07T08:30:16;5.00;;;4.80;;
18138;SDS011;9195;53.176;9.486;2022-12-07T08:32:43;4.90;;;4.70;;
18138;SDS011;9195;53.176;9.486;2022-12-07T08:35:09;5.07;;;4.88;;
18138;SDS011;9195;53.176;9.486;2022-12-07T08:37:35;6.80;;;6.50;;
18138;SDS011;9195;53.176;9.486;2022-12-07T08:40:02;8.17;;;7.87;;
18138;SDS011;9195;53.176;9.486;2022-12-07T08:42:28;7.97;;;7.67;;
18138;SDS011;9195;53.176;9.486;2022-12-07T08:45:02;7.90;;;7.60;;
18138;SDS011;9195;53.176;9.486;2022-12-07T08:47:33;7.77;;;7.47;;
18138;SDS011;9195;53.176;9.486;2022-12-07T08:50:04;7.50;;;7.20;;
18138;SDS011;9195;53.176;9.486;2022-12-07T08:52:32;7.00;;;6.70;;
18138;SDS011;9195;53.176;9.486;2022-12-07T08:54:59;7.50;;;7.20;;
18138;SDS011;9195;53.176;9.486;2022-12-07T08:57:26;5.80;;;5.60;;
18138;SDS011;9195;53.176;9.486;2022-12-07T08:59:53;5.70;;;5.50;;
18138;SDS011;9195;53.176;9.486;2022-12-07T09:02:19;7.07;;;6.77;;
18138;SDS011;9195;53.176;9.486;2022-12-07T09:04:45;5.97;;;5.77;;
18138;SDS011;9195;53.176;9.486;2022-12-07T09:07:10;6.10;;;5.90;;
18138;SDS011;9195;53.176;9.486;2022-12-07T09:09:36;6.07;;;5.87;;
18138;SDS011;9195;53.176;9.486;2022-12-07T09:12:02;6.00;;;5.80;;
18138;SDS011;9195;53.176;9.486;2022-12-07T09:14:28;6.33;;;6.13;;
18138;SDS011;9195;53.176;9.486;2022-12-07T09:16:53;6.80;;;6.50;;
18138;SDS011;9195;53.176;9.486;2022-12-07T09:19:19;6.43;;;6.23;;
18138;SDS011;9195;53.176;9.486;2022-12-07T09:21:44;6.83;;;6.53;;
18138;SDS011;9195;53.176;9.486;2022-12-07T09:24:11;6.90;;;6.60;;
18138;SDS011;9195;53.176;9.486;2022-12-07T09:26:37;6.50;;;6.30;;
18138;SDS011;9195;53.176;9.486;2022-12-07T09:29:05;9.00;;;8.60;;
18138;SDS011;9195;53.176;9.486;2022-12-07T09:31:31;9.03;;;8.63;;
18138;SDS011;9195;53.176;9.486;2022-12-07T09:33:57;9.53;;;9.13;;
18138;SDS011;9195;53.176;9.486;2022-12-07T09:36:24;9.20;;;8.80;;
18138;SDS011;9195;53.176;9.486;2022-12-07T09:38:50;9.10;;;8.70;;
18138;SDS011;9195;53.176;9.486;2022-12-07T09:41:16;7.37;;;7.07;;
18138;SDS011;9195;53.176;9.486;2022-12-07T09:43:42;9.63;;;9.23;;
18138;SDS011;9195;53.176;9.486;2022-12-07T09:46:08;9.40;;;9.00;;
18138;SDS011;9195;53.176;9.486;2022-12-07T09:48:39;9.10;;;8.70;;
18138;SDS011;9195;53.176;9.486;2022-12-07T09:51:13;9.83;;;9.43;;
18138;SDS011;9195;53.176;9.486;2022-12-07T09:53:45;9.60;;;9.20;;
18138;SDS011;9195;53.176;9.486;2022-12-07T09:56:13;9.77;;;9.37;;
18138;SDS011;9195;53.176;9.486;2022-12-07T09:58:39;9.90;;;9.50;;
18138;SDS011;9195;53.176;9.486;2022-12-07T10:03:32;8.83;;;8.43;;
18138;SDS011;9195;53.176;9.486;2022-12-07T10:05:58;10.30;;;9.90;;
18138;SDS011;9195;53.176;9.486;2022-12-07T10:08:24;10.73;;;10.27;;
18138;SDS011;9195;53.176;9.486;2022-12-07T10:10:53;9.20;;;8.80;;
18138;SDS011;9195;53.176;9.486;2022-12-07T10:16:02;10.80;;;10.37;;
18138;SDS011;9195;53.176;9.486;2022-12-07T10:18:36;12.17;;;11.67;;
18138;SDS011;9195;53.176;9.486;2022-12-07T10:24:00;13.00;;;12.40;;
18138;SDS011;9195;53.176;9.486;2022-12-07T10:31:48;13.30;;;12.70;;
18138;SDS011;9195;53.176;9.486;2022-12-07T10:34:23;13.10;;;12.50;;
18138;SDS011;9195;53.176;9.486;2022-12-07T10:36:55;13.27;;;12.67;;
18138;SDS011;9195;53.176;9.486;2022-12-07T10:39:32;12.93;;;12.33;;
18138;SDS011;9195;53.176;9.486;2022-12-07T10:45:13;12.93;;;12.33;;
18138;SDS011;9195;53.176;9.486;2022-12-07T11:01:18;11.27;;;10.77;;
18138;SDS011;9195;53.176;9.486;2022-12-07T11:03:55;12.00;;;11.50;;
18138;SDS011;9195;53.176;9.486;2022-12-07T11:17:52;12.30;;;11.80;;
18138;SDS011;9195;53.176;9.486;2022-12-07T11:26:24;15.57;;;14.87;;
18138;SDS011;9195;53.176;9.486;2022-12-07T11:31:50;15.20;;;14.50;;
18138;SDS011;9195;53.176;9.486;2022-12-07T11:34:41;14.80;;;14.10;;
18138;SDS011;9195;53.176;9.486;2022-12-07T11:37:32;15.00;;;14.30;;
18138;SDS011;9195;53.176;9.486;2022-12-07T11:40:04;15.30;;;14.60;;
18138;SDS011;9195;53.176;9.486;2022-12-07T11:42:41;14.20;;;13.60;;
18138;SDS011;9195;53.176;9.486;2022-12-07T11:45:15;15.00;;;14.30;;
18138;SDS011;9195;53.176;9.486;2022-12-07T11:47:57;13.17;;;12.57;;
18138;SDS011;9195;53.176;9.486;2022-12-07T11:50:41;13.80;;;13.20;;
18138;SDS011;9195;53.176;9.486;2022-12-07T11:58:04;14.73;;;14.03;;
18138;SDS011;9195;53.176;9.486;2022-12-07T12:00:38;14.50;;;13.80;;
18138;SDS011;9195;53.176;9.486;2022-12-07T12:03:12;14.13;;;13.53;;
18138;SDS011;9195;53.176;9.486;2022-12-07T12:05:45;13.50;;;12.90;;
18138;SDS011;9195;53.176;9.486;2022-12-07T12:08:18;13.70;;;13.10;;
18138;SDS011;9195;53.176;9.486;2022-12-07T12:22:32;13.20;;;12.60;;
18138;SDS011;9195;53.176;9.486;2022-12-07T12:25:07;13.13;;;12.53;;
18138;SDS011;9195;53.176;9.486;2022-12-07T12:27:45;13.03;;;12.43;;
18138;SDS011;9195;53.176;9.486;2022-12-07T12:33:27;12.67;;;12.13;;
18138;SDS011;9195;53.176;9.486;2022-12-07T12:41:10;12.57;;;12.07;;
18138;SDS011;9195;53.176;9.486;2022-12-07T12:51:51;11.33;;;10.83;;
18138;SDS011;9195;53.176;9.486;2022-12-07T12:59:42;10.13;;;9.73;;
18138;SDS011;9195;53.176;9.486;2022-12-07T13:10:54;10.90;;;10.40;;
18138;SDS011;9195;53.176;9.486;2022-12-07T13:15:37;10.90;;;10.40;;
18138;SDS011;9195;53.176;9.486;2022-12-07T13:18:48;11.30;;;10.80;;
18138;SDS011;9195;53.176;9.486;2022-12-07T13:20:53;10.10;;;9.70;;
18138;SDS011;9195;53.176;9.486;2022-12-07T13:23:20;10.20;;;9.80;;
18138;SDS011;9195;53.176;9.486;2022-12-07T13:25:53;10.23;;;9.83;;
18138;SDS011;9195;53.176;9.486;2022-12-07T13:28:21;11.10;;;10.60;;
18138;SDS011;9195;53.176;9.486;2022-12-07T13:30:58;11.17;;;10.67;;
18138;SDS011;9195;53.176;9.486;2022-12-07T13:33:34;12.20;;;11.70;;
18138;SDS011;9195;53.176;9.486;2022-12-07T13:36:00;12.20;;;11.70;;
18138;SDS011;9195;53.176;9.486;2022-12-07T13:41:04;11.67;;;11.17;;
18138;SDS011;9195;53.176;9.486;2022-12-07T13:43:30;11.70;;;11.20;;
18138;SDS011;9195;53.176;9.486;2022-12-07T13:45:57;11.87;;;11.37;;
18138;SDS011;9195;53.176;9.486;2022-12-07T13:48:30;11.87;;;11.37;;
18138;SDS011;9195;53.176;9.486;2022-12-07T13:50:58;12.00;;;11.50;;
18138;SDS011;9195;53.176;9.486;2022-12-07T13:53:24;12.00;;;11.50;;
18138;SDS011;9195;53.176;9.486;2022-12-07T13:55:55;12.43;;;11.83;;
18138;SDS011;9195;53.176;9.486;2022-12-07T13:58:25;11.80;;;11.30;;
18138;SDS011;9195;53.176;9.486;2022-12-07T14:00:52;12.07;;;11.57;;
18138;SDS011;9195;53.176;9.486;2022-12-07T14:03:23;12.10;;;11.60;;
18138;SDS011;9195;53.176;9.486;2022-12-07T14:06:03;11.60;;;11.10;;
18138;SDS011;9195;53.176;9.486;2022-12-07T14:08:29;11.40;;;10.90;;
18138;SDS011;9195;53.176;9.486;2022-12-07T14:10:56;11.00;;;10.50;;
18138;SDS011;9195;53.176;9.486;2022-12-07T14:16:17;10.60;;;10.20;;
18138;SDS011;9195;53.176;9.486;2022-12-07T14:18:46;11.13;;;10.63;;
18138;SDS011;9195;53.176;9.486;2022-12-07T14:23:38;11.07;;;10.57;;
18138;SDS011;9195;53.176;9.486;2022-12-07T14:26:07;10.33;;;9.93;;
18138;SDS011;9195;53.176;9.486;2022-12-07T14:28:37;10.43;;;10.03;;
18138;SDS011;9195;53.176;9.486;2022-12-07T14:31:03;10.00;;;9.60;;
18138;SDS011;9195;53.176;9.486;2022-12-07T14:33:38;9.90;;;9.50;;
18138;SDS011;9195;53.176;9.486;2022-12-07T14:36:05;9.93;;;9.53;;
18138;SDS011;9195;53.176;9.486;2022-12-07T14:38:31;10.20;;;9.80;;
18138;SDS011;9195;53.176;9.486;2022-12-07T14:40:56;9.87;;;9.47;;
18138;SDS011;9195;53.176;9.486;2022-12-07T14:43:42;10.27;;;9.87;;
18138;SDS011;9195;53.176;9.486;2022-12-07T14:46:08;9.30;;;8.90;;
18138;SDS011;9195;53.176;9.486;2022-12-07T14:48:34;9.50;;;9.10;;
18138;SDS011;9195;53.176;9.486;2022-12-07T14:51:00;8.50;;;8.20;;
18138;SDS011;9195;53.176;9.486;2022-12-07T14:53:28;8.03;;;7.73;;
18138;SDS011;9195;53.176;9.486;2022-12-07T14:55:58;7.80;;;7.50;;
18138;SDS011;9195;53.176;9.486;2022-12-07T14:58:24;8.20;;;7.90;;
18138;SDS011;9195;53.176;9.486;2022-12-07T15:00:49;7.87;;;7.57;;
18138;SDS011;9195;53.176;9.486;2022-12-07T15:03:15;8.10;;;7.80;;
18138;SDS011;9195;53.176;9.486;2022-12-07T15:05:40;8.93;;;8.53;;
18138;SDS011;9195;53.176;9.486;2022-12-07T15:08:08;8.73;;;8.37;;
18138;SDS011;9195;53.176;9.486;2022-12-07T15:10:35;6.73;;;6.43;;
18138;SDS011;9195;53.176;9.486;2022-12-07T15:13:04;6.77;;;6.47;;
18138;SDS011;9195;53.176;9.486;2022-12-07T15:15:48;7.90;;;7.60;;
18138;SDS011;9195;53.176;9.486;2022-12-07T15:18:16;7.43;;;7.13;;
18138;SDS011;9195;53.176;9.486;2022-12-07T15:20:42;8.30;;;8.00;;
18138;SDS011;9195;53.176;9.486;2022-12-07T15:23:09;7.73;;;7.43;;
18138;SDS011;9195;53.176;9.486;2022-12-07T15:25:35;7.10;;;6.80;;
18138;SDS011;9195;53.176;9.486;2022-12-07T15:28:01;6.00;;;5.80;;
18138;SDS011;9195;53.176;9.486;2022-12-07T15:30:27;5.90;;;5.70;;
18138;SDS011;9195;53.176;9.486;2022-12-07T15:32:53;6.10;;;5.90;;
18138;SDS011;9195;53.176;9.486;2022-12-07T15:35:20;6.30;;;6.10;;
18138;SDS011;9195;53.176;9.486;2022-12-07T15:37:46;6.10;;;5.90;;
18138;SDS011;9195;53.176;9.486;2022-12-07T15:40:11;5.87;;;5.67;;
18138;SDS011;9195;53.176;9.486;2022-12-07T15:42:38;5.90;;;5.70;;
18138;SDS011;9195;53.176;9.486;2022-12-07T15:45:05;5.90;;;5.70;;
18138;SDS011;9195;53.176;9.486;2022-12-07T15:47:36;5.87;;;5.67;;
18138;SDS011;9195;53.176;9.486;2022-12-07T15:50:04;5.40;;;5.20;;
18138;SDS011;9195;53.176;9.486;2022-12-07T15:52:32;5.47;;;5.27;;
18138;SDS011;9195;53.176;9.486;2022-12-07T15:54:58;5.40;;;5.20;;
18138;SDS011;9195;53.176;9.486;2022-12-07T15:57:25;5.50;;;5.30;;
18138;SDS011;9195;53.176;9.486;2022-12-07T15:59:51;5.50;;;5.30;;
18138;SDS011;9195;53.176;9.486;2022-12-07T16:02:18;5.50;;;5.30;;
18138;SDS011;9195;53.176;9.486;2022-12-07T16:04:44;5.30;;;5.10;;
18138;SDS011;9195;53.176;9.486;2022-12-07T16:07:10;5.10;;;4.90;;
18138;SDS011;9195;53.176;9.486;2022-12-07T16:09:36;4.80;;;4.60;;
18138;SDS011;9195;53.176;9.486;2022-12-07T16:12:02;4.53;;;4.33;;
18138;SDS011;9195;53.176;9.486;2022-12-07T16:14:28;4.30;;;4.10;;
18138;SDS011;9195;53.176;9.486;2022-12-07T16:16:54;4.40;;;4.20;;
18138;SDS011;9195;53.176;9.486;2022-12-07T16:19:20;4.10;;;4.00;;
18138;SDS011;9195;53.176;9.486;2022-12-07T16:21:46;4.40;;;4.20;;
18138;SDS011;9195;53.176;9.486;2022-12-07T16:24:11;4.10;;;4.00;;
18138;SDS011;9195;53.176;9.486;2022-12-07T16:26:40;3.83;;;3.73;;
18138;SDS011;9195;53.176;9.486;2022-12-07T16:29:05;4.00;;;3.90;;
18138;SDS011;9195;53.176;9.486;2022-12-07T16:31:31;3.90;;;3.80;;
18138;SDS011;9195;53.176;9.486;2022-12-07T16:33:57;3.77;;;3.67;;
18138;SDS011;9195;53.176;9.486;2022-12-07T16:36:23;3.77;;;3.67;;
18138;SDS011;9195;53.176;9.486;2022-12-07T16:38:50;4.07;;;3.97;;
18138;SDS011;9195;53.176;9.486;2022-12-07T16:41:16;3.70;;;3.60;;
18138;SDS011;9195;53.176;9.486;2022-12-07T16:43:43;3.63;;;3.53;;
18138;SDS011;9195;53.176;9.486;2022-12-07T16:46:09;3.70;;;3.60;;
18138;SDS011;9195;53.176;9.486;2022-12-07T16:48:37;4.07;;;3.97;;
18138;SDS011;9195;53.176;9.486;2022-12-07T16:51:05;3.70;;;3.60;;
18138;SDS011;9195;53.176;9.486;2022-12-07T16:53:33;3.67;;;3.57;;
18138;SDS011;9195;53.176;9.486;2022-12-07T16:56:00;3.97;;;3.87;;
18138;SDS011;9195;53.176;9.486;2022-12-07T16:58:26;3.90;;;3.80;;
18138;SDS011;9195;53.176;9.486;2022-12-07T17:00:52;3.70;;;3.60;;
18138;SDS011;9195;53.176;9.486;2022-12-07T17:03:18;4.03;;;3.93;;
18138;SDS011;9195;53.176;9.486;2022-12-07T17:05:44;3.70;;;3.60;;
18138;SDS011;9195;53.176;9.486;2022-12-07T17:08:10;4.00;;;3.90;;
18138;SDS011;9195;53.176;9.486;2022-12-07T17:10:37;4.20;;;4.07;;
18138;SDS011;9195;53.176;9.486;2022-12-07T17:13:05;4.20;;;4.10;;
18138;SDS011;9195;53.176;9.486;2022-12-07T17:15:58;4.47;;;4.27;;
18138;SDS011;9195;53.176;9.486;2022-12-07T17:18:29;4.10;;;4.00;;
18138;SDS011;9195;53.176;9.486;2022-12-07T17:21:01;4.30;;;4.10;;
18138;SDS011;9195;53.176;9.486;2022-12-07T17:23:31;4.40;;;4.20;;
18138;SDS011;9195;53.176;9.486;2022-12-07T17:26:04;4.40;;;4.20;;
18138;SDS011;9195;53.176;9.486;2022-12-07T17:28:31;4.40;;;4.20;;
18138;SDS011;9195;53.176;9.486;2022-12-07T17:30:57;4.70;;;4.50;;